sensor_id;sensor_type;location;lat;lon;timestamp;pressure;altitude;pressure_sealevel;temperature;humidity
80976;BME280;70437;49.466;11.002;2023-10-31T00:00:43;96448.66;;;13.04;100.00
80976;BME280;70437;49.466;11.002;2023-10-31T00:03:13;96451.66;;;12.98;100.00
80976;BME280;70437;49.466;11.002;2023-10-31T00:05:43;96454.16;;;12.84;100.00
80976;BME280;70437;49.466;11.002;2023-10-31T00:08:16;96457.41;;;12.81;100.00
80976;BME280;70437;49.466;11.002;2023-10-31T00:10:46;96470.00;;;12.90;100.00
80976;BME280;70437;49.466;11.002;2023-10-31T00:13:19;96466.38;;;13.05;100.00
80976;BME280;70437;49.466;11.002;2023-10-31T00:15:48;96466.94;;;13.02;100.00
80976;BME280;70437;49.466;11.002;2023-10-31T00:18:18;96462.44;;;12.93;100.00
80976;BME280;70437;49.466;11.002;2023-10-31T00:20:47;96470.81;;;12.86;100.00
80976;BME280;70437;49.466;11.002;2023-10-31T00:23:16;96466.75;;;12.88;100.00
80976;BME280;70437;49.466;11.002;2023-10-31T00:25:45;96468.63;;;12.93;100.00
80976;BME280;70437;49.466;11.002;2023-10-31T00:28:16;96475.00;;;13.02;100.00
80976;BME280;70437;49.466;11.002;2023-10-31T00:30:45;96481.47;;;13.01;100.00
80976;BME280;70437;49.466;11.002;2023-10-31T00:33:14;96472.59;;;13.01;100.00
80976;BME280;70437;49.466;11.002;2023-10-31T00:35:44;96478.56;;;12.93;100.00
80976;BME280;70437;49.466;11.002;2023-10-31T00:38:14;96477.28;;;12.80;100.00
80976;BME280;70437;49.466;11.002;2023-10-31T00:40:44;96477.84;;;12.82;100.00
80976;BME280;70437;49.466;11.002;2023-10-31T00:43:14;96482.41;;;12.81;100.00
80976;BME280;70437;49.466;11.002;2023-10-31T00:45:47;96482.63;;;12.85;100.00
80976;BME280;70437;49.466;11.002;2023-10-31T00:48:17;96487.97;;;12.90;100.00
80976;BME280;70437;49.466;11.002;2023-10-31T00:50:47;96488.22;;;12.94;100.00
80976;BME280;70437;49.466;11.002;2023-10-31T00:53:18;96503.00;;;12.96;100.00
80976;BME280;70437;49.466;11.002;2023-10-31T00:55:49;96500.91;;;12.88;100.00
80976;BME280;70437;49.466;11.002;2023-10-31T00:58:21;96492.84;;;12.88;100.00
80976;BME280;70437;49.466;11.002;2023-10-31T01:00:51;96489.09;;;12.84;100.00
80976;BME280;70437;49.466;11.002;2023-10-31T01:03:20;96486.44;;;12.79;100.00
80976;BME280;70437;49.466;11.002;2023-10-31T01:05:50;96481.91;;;12.74;100.00
80976;BME280;70437;49.466;11.002;2023-10-31T01:08:21;96490.53;;;12.66;100.00
80976;BME280;70437;49.466;11.002;2023-10-31T01:10:51;96490.84;;;12.59;100.00
80976;BME280;70437;49.466;11.002;2023-10-31T01:13:20;96489.94;;;12.79;100.00
80976;BME280;70437;49.466;11.002;2023-10-31T01:15:51;96486.44;;;12.79;100.00
80976;BME280;70437;49.466;11.002;2023-10-31T01:18:20;96505.50;;;12.82;100.00
80976;BME280;70437;49.466;11.002;2023-10-31T01:20:49;96493.50;;;12.64;100.00
80976;BME280;70437;49.466;11.002;2023-10-31T01:23:20;96497.50;;;12.67;100.00
80976;BME280;70437;49.466;11.002;2023-10-31T01:25:52;96498.94;;;12.49;100.00
80976;BME280;70437;49.466;11.002;2023-10-31T01:28:21;96510.47;;;12.60;100.00
80976;BME280;70437;49.466;11.002;2023-10-31T01:30:53;96508.81;;;12.69;100.00
80976;BME280;70437;49.466;11.002;2023-10-31T01:33:23;96507.22;;;12.58;100.00
80976;BME280;70437;49.466;11.002;2023-10-31T01:35:55;96504.25;;;12.64;100.00
80976;BME280;70437;49.466;11.002;2023-10-31T01:38:26;96493.75;;;12.68;100.00
80976;BME280;70437;49.466;11.002;2023-10-31T01:40:55;96493.25;;;12.61;100.00
80976;BME280;70437;49.466;11.002;2023-10-31T01:43:31;96500.53;;;12.55;100.00
80976;BME280;70437;49.466;11.002;2023-10-31T01:46:02;96497.84;;;12.55;100.00
80976;BME280;70437;49.466;11.002;2023-10-31T01:48:33;96493.81;;;12.53;100.00
80976;BME280;70437;49.466;11.002;2023-10-31T01:51:03;96485.19;;;12.61;100.00
80976;BME280;70437;49.466;11.002;2023-10-31T01:53:34;96476.63;;;12.54;100.00
80976;BME280;70437;49.466;11.002;2023-10-31T01:56:05;96492.50;;;12.50;100.00
80976;BME280;70437;49.466;11.002;2023-10-31T01:58:36;96504.56;;;12.53;100.00
80976;BME280;70437;49.466;11.002;2023-10-31T02:01:13;96506.44;;;12.57;100.00
80976;BME280;70437;49.466;11.002;2023-10-31T02:03:42;96514.19;;;12.59;100.00
80976;BME280;70437;49.466;11.002;2023-10-31T02:06:12;96519.09;;;12.47;100.00
80976;BME280;70437;49.466;11.002;2023-10-31T02:08:41;96523.09;;;12.49;100.00
80976;BME280;70437;49.466;11.002;2023-10-31T02:11:10;96522.88;;;12.40;100.00
80976;BME280;70437;49.466;11.002;2023-10-31T02:13:42;96533.63;;;12.40;100.00
80976;BME280;70437;49.466;11.002;2023-10-31T02:16:12;96531.72;;;12.41;100.00
80976;BME280;70437;49.466;11.002;2023-10-31T02:18:42;96523.44;;;12.27;100.00
80976;BME280;70437;49.466;11.002;2023-10-31T02:21:12;96535.25;;;12.42;100.00
80976;BME280;70437;49.466;11.002;2023-10-31T02:23:43;96535.00;;;12.33;100.00
80976;BME280;70437;49.466;11.002;2023-10-31T02:26:15;96532.31;;;12.33;100.00
80976;BME280;70437;49.466;11.002;2023-10-31T02:28:45;96541.19;;;12.33;100.00
80976;BME280;70437;49.466;11.002;2023-10-31T02:31:18;96536.91;;;12.22;100.00
80976;BME280;70437;49.466;11.002;2023-10-31T02:33:47;96539.28;;;12.34;100.00
80976;BME280;70437;49.466;11.002;2023-10-31T02:36:18;96541.22;;;12.13;100.00
80976;BME280;70437;49.466;11.002;2023-10-31T02:38:50;96545.50;;;12.19;100.00
80976;BME280;70437;49.466;11.002;2023-10-31T02:41:20;96561.63;;;12.09;100.00
80976;BME280;70437;49.466;11.002;2023-10-31T02:43:50;96554.66;;;12.08;100.00
80976;BME280;70437;49.466;11.002;2023-10-31T02:46:23;96578.53;;;12.20;100.00
80976;BME280;70437;49.466;11.002;2023-10-31T02:48:51;96568.63;;;12.00;100.00
80976;BME280;70437;49.466;11.002;2023-10-31T02:51:21;96586.03;;;12.12;100.00
80976;BME280;70437;49.466;11.002;2023-10-31T02:53:51;96582.56;;;12.07;100.00
80976;BME280;70437;49.466;11.002;2023-10-31T02:56:25;96590.59;;;12.22;100.00
80976;BME280;70437;49.466;11.002;2023-10-31T02:58:54;96587.66;;;12.08;100.00
80976;BME280;70437;49.466;11.002;2023-10-31T03:01:28;96596.78;;;12.07;100.00
80976;BME280;70437;49.466;11.002;2023-10-31T03:03:58;96597.59;;;12.03;100.00
80976;BME280;70437;49.466;11.002;2023-10-31T03:06:27;96608.63;;;12.06;100.00
80976;BME280;70437;49.466;11.002;2023-10-31T03:08:58;96621.75;;;12.03;100.00
80976;BME280;70437;49.466;11.002;2023-10-31T03:11:27;96612.88;;;11.82;100.00
80976;BME280;70437;49.466;11.002;2023-10-31T03:13:56;96617.44;;;11.76;100.00
80976;BME280;70437;49.466;11.002;2023-10-31T03:16:25;96613.16;;;11.75;100.00
80976;BME280;70437;49.466;11.002;2023-10-31T03:18:54;96617.19;;;11.83;100.00
80976;BME280;70437;49.466;11.002;2023-10-31T03:21:26;96611.53;;;11.74;100.00
80976;BME280;70437;49.466;11.002;2023-10-31T03:23:55;96612.59;;;11.53;100.00
80976;BME280;70437;49.466;11.002;2023-10-31T03:26:26;96611.78;;;11.57;100.00
80976;BME280;70437;49.466;11.002;2023-10-31T03:28:57;96621.97;;;11.50;100.00
80976;BME280;70437;49.466;11.002;2023-10-31T03:31:30;96623.56;;;11.51;100.00
80976;BME280;70437;49.466;11.002;2023-10-31T03:33:59;96624.38;;;11.47;100.00
80976;BME280;70437;49.466;11.002;2023-10-31T03:36:29;96629.22;;;11.50;100.00
80976;BME280;70437;49.466;11.002;2023-10-31T03:38:58;96628.41;;;11.44;100.00
80976;BME280;70437;49.466;11.002;2023-10-31T03:41:30;96628.13;;;11.56;100.00
80976;BME280;70437;49.466;11.002;2023-10-31T03:44:01;96624.94;;;11.54;100.00
80976;BME280;70437;49.466;11.002;2023-10-31T03:46:30;96637.25;;;11.50;100.00
80976;BME280;70437;49.466;11.002;2023-10-31T03:49:01;96632.19;;;11.58;100.00
80976;BME280;70437;49.466;11.002;2023-10-31T03:51:30;96636.97;;;11.41;100.00
80976;BME280;70437;49.466;11.002;2023-10-31T03:54:01;96619.25;;;11.35;100.00
80976;BME280;70437;49.466;11.002;2023-10-31T03:56:38;96641.25;;;11.37;100.00
80976;BME280;70437;49.466;11.002;2023-10-31T03:59:09;96625.16;;;11.37;100.00
80976;BME280;70437;49.466;11.002;2023-10-31T04:01:39;96648.19;;;11.33;100.00
80976;BME280;70437;49.466;11.002;2023-10-31T04:04:08;96651.16;;;11.26;100.00
80976;BME280;70437;49.466;11.002;2023-10-31T04:06:37;96658.63;;;11.24;100.00
80976;BME280;70437;49.466;11.002;2023-10-31T04:09:09;96657.81;;;11.13;100.00
80976;BME280;70437;49.466;11.002;2023-10-31T04:11:40;96664.47;;;11.11;100.00
80976;BME280;70437;49.466;11.002;2023-10-31T04:14:12;96659.41;;;11.09;100.00
80976;BME280;70437;49.466;11.002;2023-10-31T04:16:42;96657.50;;;11.05;100.00
80976;BME280;70437;49.466;11.002;2023-10-31T04:19:15;96662.56;;;11.01;100.00
80976;BME280;70437;49.466;11.002;2023-10-31T04:21:45;96668.25;;;11.10;100.00
80976;BME280;70437;49.466;11.002;2023-10-31T04:24:14;96677.63;;;11.12;100.00
80976;BME280;70437;49.466;11.002;2023-10-31T04:26:45;96670.63;;;11.06;100.00
80976;BME280;70437;49.466;11.002;2023-10-31T04:29:15;96674.69;;;11.14;100.00
80976;BME280;70437;49.466;11.002;2023-10-31T04:31:45;96671.69;;;11.05;100.00
80976;BME280;70437;49.466;11.002;2023-10-31T04:34:14;96671.44;;;11.07;100.00
80976;BME280;70437;49.466;11.002;2023-10-31T04:36:44;96669.81;;;11.01;100.00
80976;BME280;70437;49.466;11.002;2023-10-31T04:39:14;96670.91;;;11.05;100.00
80976;BME280;70437;49.466;11.002;2023-10-31T04:41:44;96685.63;;;11.02;100.00
80976;BME280;70437;49.466;11.002;2023-10-31T04:44:14;96679.41;;;10.92;100.00
80976;BME280;70437;49.466;11.002;2023-10-31T04:46:45;96679.16;;;10.93;100.00
80976;BME280;70437;49.466;11.002;2023-10-31T04:49:15;96678.34;;;10.93;100.00
80976;BME280;70437;49.466;11.002;2023-10-31T04:51:44;96684.78;;;10.92;100.00
80976;BME280;70437;49.466;11.002;2023-10-31T04:54:17;96680.72;;;10.89;100.00
80976;BME280;70437;49.466;11.002;2023-10-31T04:56:49;96682.06;;;10.86;100.00
80976;BME280;70437;49.466;11.002;2023-10-31T04:59:18;96686.03;;;10.79;100.00
80976;BME280;70437;49.466;11.002;2023-10-31T05:01:50;96697.03;;;10.77;100.00
80976;BME280;70437;49.466;11.002;2023-10-31T05:04:23;96695.69;;;10.80;100.00
80976;BME280;70437;49.466;11.002;2023-10-31T05:06:54;96694.09;;;10.79;100.00
80976;BME280;70437;49.466;11.002;2023-10-31T05:09:23;96701.00;;;10.70;100.00
80976;BME280;70437;49.466;11.002;2023-10-31T05:11:55;96705.56;;;10.74;100.00
80976;BME280;70437;49.466;11.002;2023-10-31T05:14:24;96712.81;;;10.74;100.00
80976;BME280;70437;49.466;11.002;2023-10-31T05:16:53;96718.44;;;10.72;100.00
80976;BME280;70437;49.466;11.002;2023-10-31T05:19:22;96709.53;;;10.67;100.00
80976;BME280;70437;49.466;11.002;2023-10-31T05:21:53;96714.72;;;10.78;100.00
80976;BME280;70437;49.466;11.002;2023-10-31T05:24:23;96719.72;;;10.65;100.00
80976;BME280;70437;49.466;11.002;2023-10-31T05:26:52;96716.47;;;10.62;100.00
80976;BME280;70437;49.466;11.002;2023-10-31T05:29:24;96722.66;;;10.63;100.00
80976;BME280;70437;49.466;11.002;2023-10-31T05:31:53;96723.56;;;10.79;100.00
80976;BME280;70437;49.466;11.002;2023-10-31T05:34:23;96729.41;;;10.76;100.00
80976;BME280;70437;49.466;11.002;2023-10-31T05:36:52;96732.31;;;10.64;100.00
80976;BME280;70437;49.466;11.002;2023-10-31T05:39:21;96724.28;;;10.64;100.00
80976;BME280;70437;49.466;11.002;2023-10-31T05:41:51;96725.34;;;10.63;100.00
80976;BME280;70437;49.466;11.002;2023-10-31T05:44:19;96725.94;;;10.75;100.00
80976;BME280;70437;49.466;11.002;2023-10-31T05:46:52;96722.44;;;10.70;100.00
80976;BME280;70437;49.466;11.002;2023-10-31T05:49:23;96718.66;;;10.66;100.00
80976;BME280;70437;49.466;11.002;2023-10-31T05:51:52;96703.31;;;10.56;100.00
80976;BME280;70437;49.466;11.002;2023-10-31T05:54:21;96712.22;;;10.67;100.00
80976;BME280;70437;49.466;11.002;2023-10-31T05:56:51;96721.78;;;10.52;100.00
80976;BME280;70437;49.466;11.002;2023-10-31T05:59:20;96728.25;;;10.61;100.00
80976;BME280;70437;49.466;11.002;2023-10-31T06:01:51;96726.66;;;10.60;100.00
80976;BME280;70437;49.466;11.002;2023-10-31T06:04:21;96732.47;;;10.52;100.00
80976;BME280;70437;49.466;11.002;2023-10-31T06:06:50;96736.31;;;10.67;100.00
80976;BME280;70437;49.466;11.002;2023-10-31T06:09:20;96753.69;;;10.59;100.00
80976;BME280;70437;49.466;11.002;2023-10-31T06:11:51;96752.13;;;10.63;100.00
80976;BME280;70437;49.466;11.002;2023-10-31T06:14:20;96737.34;;;10.55;100.00
80976;BME280;70437;49.466;11.002;2023-10-31T06:16:52;96745.69;;;10.64;100.00
80976;BME280;70437;49.466;11.002;2023-10-31T06:19:23;96754.16;;;10.51;100.00
80976;BME280;70437;49.466;11.002;2023-10-31T06:21:52;96760.34;;;10.51;100.00
80976;BME280;70437;49.466;11.002;2023-10-31T06:24:21;96759.06;;;10.59;100.00
80976;BME280;70437;49.466;11.002;2023-10-31T06:26:53;96771.69;;;10.63;100.00
80976;BME280;70437;49.466;11.002;2023-10-31T06:29:26;96778.59;;;10.59;100.00
80976;BME280;70437;49.466;11.002;2023-10-31T06:32:17;96788.88;;;10.73;100.00
80976;BME280;70437;49.466;11.002;2023-10-31T06:34:47;96786.75;;;10.75;100.00
80976;BME280;70437;49.466;11.002;2023-10-31T06:37:16;96783.59;;;10.83;100.00
80976;BME280;70437;49.466;11.002;2023-10-31T06:39:45;96795.38;;;10.82;100.00
80976;BME280;70437;49.466;11.002;2023-10-31T06:42:14;96796.47;;;10.86;100.00
80976;BME280;70437;49.466;11.002;2023-10-31T06:44:44;96795.72;;;10.91;100.00
80976;BME280;70437;49.466;11.002;2023-10-31T06:47:14;96809.75;;;11.08;100.00
80976;BME280;70437;49.466;11.002;2023-10-31T06:49:45;96811.00;;;10.95;100.00
80976;BME280;70437;49.466;11.002;2023-10-31T06:52:14;96825.56;;;11.09;100.00
80976;BME280;70437;49.466;11.002;2023-10-31T06:54:45;96837.41;;;11.19;100.00
80976;BME280;70437;49.466;11.002;2023-10-31T06:57:14;96821.28;;;11.08;100.00
80976;BME280;70437;49.466;11.002;2023-10-31T06:59:48;96828.97;;;10.95;100.00
80976;BME280;70437;49.466;11.002;2023-10-31T07:02:20;96827.50;;;11.19;100.00
80976;BME280;70437;49.466;11.002;2023-10-31T07:04:51;96837.72;;;11.22;100.00
80976;BME280;70437;49.466;11.002;2023-10-31T07:07:21;96842.97;;;11.07;100.00
80976;BME280;70437;49.466;11.002;2023-10-31T07:09:51;96844.25;;;10.94;100.00
80976;BME280;70437;49.466;11.002;2023-10-31T07:12:20;96857.78;;;11.20;100.00
80976;BME280;70437;49.466;11.002;2023-10-31T07:14:50;96866.88;;;11.13;100.00
80976;BME280;70437;49.466;11.002;2023-10-31T07:17:20;96881.09;;;11.14;100.00
80976;BME280;70437;49.466;11.002;2023-10-31T07:19:52;96879.94;;;11.05;100.00
80976;BME280;70437;49.466;11.002;2023-10-31T07:22:21;96887.22;;;11.09;100.00
80976;BME280;70437;49.466;11.002;2023-10-31T07:24:53;96884.09;;;11.23;100.00
80976;BME280;70437;49.466;11.002;2023-10-31T07:27:23;96878.25;;;10.94;100.00
80976;BME280;70437;49.466;11.002;2023-10-31T07:29:53;96892.88;;;11.13;100.00
80976;BME280;70437;49.466;11.002;2023-10-31T07:32:22;96888.28;;;11.08;100.00
80976;BME280;70437;49.466;11.002;2023-10-31T07:34:53;96892.63;;;11.20;100.00
80976;BME280;70437;49.466;11.002;2023-10-31T07:37:22;96887.22;;;11.09;100.00
80976;BME280;70437;49.466;11.002;2023-10-31T07:39:56;96891.78;;;11.09;100.00
80976;BME280;70437;49.466;11.002;2023-10-31T07:42:25;96888.38;;;11.24;100.00
80976;BME280;70437;49.466;11.002;2023-10-31T07:44:54;96890.66;;;11.05;100.00
80976;BME280;70437;49.466;11.002;2023-10-31T07:47:23;96898.53;;;11.17;100.00
80976;BME280;70437;49.466;11.002;2023-10-31T07:49:54;96897.47;;;11.18;100.00
80976;BME280;70437;49.466;11.002;2023-10-31T07:52:24;96899.06;;;11.19;100.00
80976;BME280;70437;49.466;11.002;2023-10-31T07:54:55;96910.63;;;11.24;100.00
80976;BME280;70437;49.466;11.002;2023-10-31T07:57:25;96910.06;;;11.17;100.00
80976;BME280;70437;49.466;11.002;2023-10-31T07:59:57;96912.72;;;11.12;100.00
80976;BME280;70437;49.466;11.002;2023-10-31T08:02:26;96912.47;;;11.19;100.00
80976;BME280;70437;49.466;11.002;2023-10-31T08:04:58;96936.84;;;11.12;100.00
80976;BME280;70437;49.466;11.002;2023-10-31T08:07:28;96924.19;;;11.07;100.00
80976;BME280;70437;49.466;11.002;2023-10-31T08:09:59;96923.00;;;11.25;100.00
80976;BME280;70437;49.466;11.002;2023-10-31T08:12:31;96928.59;;;11.24;100.00
80976;BME280;70437;49.466;11.002;2023-10-31T08:15:00;96934.03;;;11.34;100.00
80976;BME280;70437;49.466;11.002;2023-10-31T08:17:32;96935.25;;;11.53;100.00
80976;BME280;70437;49.466;11.002;2023-10-31T08:20:04;96933.28;;;11.38;100.00
80976;BME280;70437;49.466;11.002;2023-10-31T08:22:33;96931.47;;;11.49;100.00
80976;BME280;70437;49.466;11.002;2023-10-31T08:25:04;96932.75;;;11.42;100.00
80976;BME280;70437;49.466;11.002;2023-10-31T08:27:34;96938.09;;;11.42;100.00
80976;BME280;70437;49.466;11.002;2023-10-31T08:30:04;96937.16;;;11.58;100.00
80976;BME280;70437;49.466;11.002;2023-10-31T08:32:33;96946.16;;;11.42;100.00
80976;BME280;70437;49.466;11.002;2023-10-31T08:35:05;96952.28;;;11.37;100.00
80976;BME280;70437;49.466;11.002;2023-10-31T08:37:36;96952.25;;;11.32;100.00
80976;BME280;70437;49.466;11.002;2023-10-31T08:40:07;96963.41;;;11.19;100.00
80976;BME280;70437;49.466;11.002;2023-10-31T08:42:37;96956.31;;;11.34;100.00
80976;BME280;70437;49.466;11.002;2023-10-31T08:45:07;96960.63;;;11.41;100.00
80976;BME280;70437;49.466;11.002;2023-10-31T08:47:37;96963.53;;;11.34;100.00
80976;BME280;70437;49.466;11.002;2023-10-31T08:50:08;96960.59;;;11.35;100.00
80976;BME280;70437;49.466;11.002;2023-10-31T08:52:39;96956.41;;;11.50;100.00
80976;BME280;70437;49.466;11.002;2023-10-31T08:55:08;96954.25;;;11.52;100.00
80976;BME280;70437;49.466;11.002;2023-10-31T08:57:38;96952.16;;;11.54;100.00
80976;BME280;70437;49.466;11.002;2023-10-31T09:00:08;96947.19;;;11.35;100.00
80976;BME280;70437;49.466;11.002;2023-10-31T09:02:37;96950.56;;;11.58;100.00
80976;BME280;70437;49.466;11.002;2023-10-31T09:05:08;96947.66;;;11.64;100.00
80976;BME280;70437;49.466;11.002;2023-10-31T09:07:38;96940.66;;;11.58;100.00
80976;BME280;70437;49.466;11.002;2023-10-31T09:10:09;96947.84;;;11.53;100.00
80976;BME280;70437;49.466;11.002;2023-10-31T09:12:38;96960.94;;;11.44;100.00
80976;BME280;70437;49.466;11.002;2023-10-31T09:15:08;96961.44;;;11.41;100.00
80976;BME280;70437;49.466;11.002;2023-10-31T09:17:37;96959.13;;;11.18;100.00
80976;BME280;70437;49.466;11.002;2023-10-31T09:20:10;96973.88;;;11.20;100.00
80976;BME280;70437;49.466;11.002;2023-10-31T09:22:40;96960.53;;;11.25;100.00
80976;BME280;70437;49.466;11.002;2023-10-31T09:25:10;96957.78;;;11.20;100.00
80976;BME280;70437;49.466;11.002;2023-10-31T09:27:41;96958.84;;;11.19;100.00
80976;BME280;70437;49.466;11.002;2023-10-31T09:30:13;96954.47;;;11.40;100.00
80976;BME280;70437;49.466;11.002;2023-10-31T09:32:43;96956.88;;;11.42;100.00
80976;BME280;70437;49.466;11.002;2023-10-31T09:35:16;96961.84;;;11.60;100.00
80976;BME280;70437;49.466;11.002;2023-10-31T09:37:46;96952.00;;;11.33;100.00
80976;BME280;70437;49.466;11.002;2023-10-31T09:40:17;96946.84;;;11.27;100.00
80976;BME280;70437;49.466;11.002;2023-10-31T09:42:48;96963.09;;;11.15;100.00
80976;BME280;70437;49.466;11.002;2023-10-31T09:45:17;96957.66;;;11.37;100.00
80976;BME280;70437;49.466;11.002;2023-10-31T09:47:47;96964.59;;;11.70;100.00
80976;BME280;70437;49.466;11.002;2023-10-31T09:50:17;96973.47;;;11.71;100.00
80976;BME280;70437;49.466;11.002;2023-10-31T09:52:47;96974.25;;;11.71;100.00
80976;BME280;70437;49.466;11.002;2023-10-31T09:55:19;96979.88;;;11.70;100.00
80976;BME280;70437;49.466;11.002;2023-10-31T09:57:49;96966.06;;;11.51;100.00
80976;BME280;70437;49.466;11.002;2023-10-31T10:00:24;96982.69;;;11.48;100.00
80976;BME280;70437;49.466;11.002;2023-10-31T10:02:59;96993.63;;;11.41;100.00
80976;BME280;70437;49.466;11.002;2023-10-31T10:05:31;97000.31;;;11.38;100.00
80976;BME280;70437;49.466;11.002;2023-10-31T10:08:01;97003.75;;;11.34;100.00
80976;BME280;70437;49.466;11.002;2023-10-31T10:10:30;97004.19;;;11.21;100.00
80976;BME280;70437;49.466;11.002;2023-10-31T10:13:02;97004.94;;;11.16;100.00
80976;BME280;70437;49.466;11.002;2023-10-31T10:15:43;96998.09;;;11.30;100.00
80976;BME280;70437;49.466;11.002;2023-10-31T10:18:24;97006.19;;;11.35;100.00
80976;BME280;70437;49.466;11.002;2023-10-31T10:20:56;97010.28;;;11.80;100.00
80976;BME280;70437;49.466;11.002;2023-10-31T10:23:29;97011.13;;;12.33;100.00
80976;BME280;70437;49.466;11.002;2023-10-31T10:26:03;97012.25;;;11.90;100.00
80976;BME280;70437;49.466;11.002;2023-10-31T10:28:33;97016.78;;;11.84;100.00
80976;BME280;70437;49.466;11.002;2023-10-31T10:31:02;97014.47;;;11.66;100.00
80976;BME280;70437;49.466;11.002;2023-10-31T10:33:34;97022.88;;;11.80;100.00
80976;BME280;70437;49.466;11.002;2023-10-31T10:36:08;97020.38;;;11.68;100.00
80976;BME280;70437;49.466;11.002;2023-10-31T10:38:40;97023.06;;;11.68;100.00
80976;BME280;70437;49.466;11.002;2023-10-31T10:41:15;97025.72;;;11.63;100.00
80976;BME280;70437;49.466;11.002;2023-10-31T10:43:50;97018.97;;;11.93;100.00
80976;BME280;70437;49.466;11.002;2023-10-31T10:46:26;97034.22;;;11.87;100.00
80976;BME280;70437;49.466;11.002;2023-10-31T10:48:56;97028.47;;;12.10;100.00
80976;BME280;70437;49.466;11.002;2023-10-31T10:51:38;97030.19;;;11.84;100.00
80976;BME280;70437;49.466;11.002;2023-10-31T10:54:16;97034.06;;;11.67;100.00
80976;BME280;70437;49.466;11.002;2023-10-31T10:56:54;97028.91;;;11.92;100.00
80976;BME280;70437;49.466;11.002;2023-10-31T10:59:33;97038.91;;;12.02;100.00
80976;BME280;70437;49.466;11.002;2023-10-31T11:02:09;97053.41;;;11.74;100.00
80976;BME280;70437;49.466;11.002;2023-10-31T11:04:43;97041.41;;;11.81;100.00
80976;BME280;70437;49.466;11.002;2023-10-31T11:07:24;97031.25;;;11.83;100.00
80976;BME280;70437;49.466;11.002;2023-10-31T11:09:54;97043.22;;;12.08;100.00
80976;BME280;70437;49.466;11.002;2023-10-31T11:12:25;97035.47;;;12.17;100.00
80976;BME280;70437;49.466;11.002;2023-10-31T11:14:55;97035.66;;;12.05;100.00
80976;BME280;70437;49.466;11.002;2023-10-31T11:17:28;97045.09;;;12.07;100.00
80976;BME280;70437;49.466;11.002;2023-10-31T11:19:58;97044.44;;;12.32;100.00
80976;BME280;70437;49.466;11.002;2023-10-31T11:22:43;97043.91;;;12.35;100.00
80976;BME280;70437;49.466;11.002;2023-10-31T11:25:15;97059.41;;;12.23;100.00
80976;BME280;70437;49.466;11.002;2023-10-31T11:28:15;97067.13;;;12.09;100.00
80976;BME280;70437;49.466;11.002;2023-10-31T11:30:49;97067.00;;;12.36;100.00
80976;BME280;70437;49.466;11.002;2023-10-31T11:33:19;97067.59;;;12.49;100.00
80976;BME280;70437;49.466;11.002;2023-10-31T11:35:50;97062.31;;;12.11;100.00
80976;BME280;70437;49.466;11.002;2023-10-31T11:38:32;97045.56;;;12.42;100.00
80976;BME280;70437;49.466;11.002;2023-10-31T11:41:04;97056.44;;;12.20;100.00
80976;BME280;70437;49.466;11.002;2023-10-31T11:43:53;97055.34;;;12.16;100.00
80976;BME280;70437;49.466;11.002;2023-10-31T11:46:23;97050.63;;;12.38;100.00
80976;BME280;70437;49.466;11.002;2023-10-31T11:48:54;97056.22;;;12.26;100.00
80976;BME280;70437;49.466;11.002;2023-10-31T11:51:28;97051.97;;;12.35;100.00
80976;BME280;70437;49.466;11.002;2023-10-31T11:54:02;97051.50;;;12.54;100.00
80976;BME280;70437;49.466;11.002;2023-10-31T11:56:32;97056.81;;;12.38;100.00
80976;BME280;70437;49.466;11.002;2023-10-31T11:59:02;97057.94;;;12.48;100.00
80976;BME280;70437;49.466;11.002;2023-10-31T12:01:32;97042.97;;;12.67;100.00
80976;BME280;70437;49.466;11.002;2023-10-31T12:04:02;97053.09;;;12.50;100.00
80976;BME280;70437;49.466;11.002;2023-10-31T12:06:34;97050.34;;;12.34;100.00
80976;BME280;70437;49.466;11.002;2023-10-31T12:09:11;97058.91;;;12.31;100.00
80976;BME280;70437;49.466;11.002;2023-10-31T12:11:44;97057.88;;;12.32;100.00
80976;BME280;70437;49.466;11.002;2023-10-31T12:14:18;97064.31;;;12.36;100.00
80976;BME280;70437;49.466;11.002;2023-10-31T12:16:53;97060.25;;;12.29;100.00
80976;BME280;70437;49.466;11.002;2023-10-31T12:19:25;97064.38;;;12.42;100.00
80976;BME280;70437;49.466;11.002;2023-10-31T12:21:58;97063.16;;;12.22;100.00
80976;BME280;70437;49.466;11.002;2023-10-31T12:24:30;97074.56;;;12.45;100.00
80976;BME280;70437;49.466;11.002;2023-10-31T12:27:01;97070.47;;;12.32;100.00
80976;BME280;70437;49.466;11.002;2023-10-31T12:29:30;97067.38;;;12.08;100.00
80976;BME280;70437;49.466;11.002;2023-10-31T12:32:00;97074.97;;;12.21;100.00
80976;BME280;70437;49.466;11.002;2023-10-31T12:34:29;97074.84;;;12.48;100.00
80976;BME280;70437;49.466;11.002;2023-10-31T12:37:02;97072.47;;;12.57;100.00
80976;BME280;70437;49.466;11.002;2023-10-31T12:39:33;97066.03;;;12.58;100.00
80976;BME280;70437;49.466;11.002;2023-10-31T12:42:03;97073.38;;;12.78;100.00
80976;BME280;70437;49.466;11.002;2023-10-31T12:44:33;97067.78;;;12.95;100.00
80976;BME280;70437;49.466;11.002;2023-10-31T12:47:07;97065.50;;;13.49;100.00
80976;BME280;70437;49.466;11.002;2023-10-31T12:49:36;97061.47;;;13.36;100.00
80976;BME280;70437;49.466;11.002;2023-10-31T12:52:06;97063.34;;;13.36;100.00
80976;BME280;70437;49.466;11.002;2023-10-31T12:54:38;97061.16;;;13.28;100.00
80976;BME280;70437;49.466;11.002;2023-10-31T12:57:19;97055.97;;;13.01;100.00
80976;BME280;70437;49.466;11.002;2023-10-31T12:59:55;97049.50;;;12.92;100.00